Stove Tradition — LAHD5 — position and weather

sailwx.info

Track history (hours):
 
Tides and Currents Weather Stations Pressure Air Temp Water Temp Dewpoint Dewpoint Depression Visibility Wind Speed Wind Dir Waves Ship Positions

Stove Tradition

Last reported at 2014-Dec-21 15:32 UTC. Time now 2014-Dec-21 16:34 UTC.
Position N 51°10' E 003°48'.

Length 186 m; draft 11.5 m.

Type: Ship. MMSI: 259962000.

Date/timePositionNaut miles runAvg speedWind from/ knotsBaromVisibWave heightAir tempDewpointWater temp
2014-Dec-21 15:32N 51°10' E 003°48'0 0.0
2014-Dec-21 14:32N 51°10' E 003°48'0 0.0
2014-Dec-21 13:32N 51°10' E 003°48'0 0.0
2014-Dec-21 12:29N 51°10' E 003°48'0 0.0
2014-Dec-21 11:32N 51°10' E 003°48'0 0.0
2014-Dec-21 10:32N 51°10' E 003°48'0 0.0
2014-Dec-21 09:26N 51°10' E 003°48'0 0.0
2014-Dec-21 08:32N 51°10' E 003°48'0 0.0
2014-Dec-21 07:32N 51°10' E 003°48'0 0.0
2014-Dec-21 06:32N 51°10' E 003°48'0 0.0
2014-Dec-21 05:26N 51°10' E 003°48'0 0.0
2014-Dec-21 04:26N 51°10' E 003°48'0 0.0
2014-Dec-21 03:32N 51°10' E 003°48'0 0.0
2014-Dec-21 02:31N 51°10' E 003°48'0 0.0
2014-Dec-21 01:31N 51°10' E 003°48'0 0.0
2014-Dec-21 00:22N 51°10' E 003°48'0 0.0
2014-Dec-20 23:28N 51°10' E 003°48'0 0.0
2014-Dec-20 22:28N 51°10' E 003°48'0 0.0
2014-Dec-20 21:28N 51°10' E 003°48'0 0.0
2014-Dec-20 20:29N 51°10' E 003°48'0 0.0
2014-Dec-20 19:28N 51°10' E 003°48'0 0.0
2014-Dec-20 18:32N 51°10' E 003°48'0 0.0
2014-Dec-20 17:32N 51°10' E 003°48'0 0.0
2014-Dec-20 16:31N 51°10' E 003°48'0 0.0
2014-Dec-20 15:28N 51°10' E 003°48'0 0.0
2014-Dec-20 14:25N 51°10' E 003°48'0 0.0
2014-Dec-20 13:28N 51°10' E 003°48'0 0.0
2014-Dec-20 12:28N 51°10' E 003°48'0 0.0
2014-Dec-20 11:26N 51°10' E 003°48'0 0.0
2014-Dec-20 10:26N 51°10' E 003°48'0 0.0
2014-Dec-20 09:28N 51°10' E 003°48'0 0.0
2014-Dec-20 08:29N 51°10' E 003°48'0 0.0
2014-Dec-20 07:22N 51°10' E 003°48'0 0.0
2014-Dec-20 06:31N 51°10' E 003°48'0 0.0
2014-Dec-20 05:28N 51°10' E 003°48'0 0.0
2014-Dec-20 04:32N 51°10' E 003°48'0 0.0
2014-Dec-20 03:28N 51°10' E 003°48'0 0.0
2014-Dec-20 02:31N 51°10' E 003°48'0 0.0
2014-Dec-20 01:31N 51°10' E 003°48'0 0.0
2014-Dec-20 00:28N 51°10' E 003°48'0 0.0
2014-Dec-19 23:25N 51°10' E 003°48'0 0.0
2014-Dec-19 22:28N 51°10' E 003°48'0 0.0
2014-Dec-19 21:25N 51°10' E 003°48'0 0.0
2014-Dec-19 20:22N 51°10' E 003°48'0 0.0
2014-Dec-19 19:28N 51°10' E 003°48'0 0.0
2014-Dec-19 18:31N 51°10' E 003°48'0 0.0
2014-Dec-19 17:28N 51°10' E 003°48'0 0.0
2014-Dec-19 16:28N 51°10' E 003°48'0 0.0
2014-Dec-19 15:34N 51°10' E 003°48'2 1.9
2014-Dec-19 14:33N 51°12' E 003°48'5 4.8
2014-Dec-19 13:33N 51°17' E 003°50'3 3.1
2014-Dec-19 12:34N 51°20' E 003°49'4 4.3
2014-Dec-19 11:33N 51°23' E 003°44'8 7.5
2014-Dec-19 10:33N 51°25' E 003°32'6 6.2
2014-Dec-19 09:33N 51°24' E 003°23'8 7.5
2014-Dec-19 08:30N 51°24' E 003°10'1010.9
2014-Dec-19 07:33N 51°22' E 002°54'8 7.6
2014-Dec-19 06:33N 51°24' E 002°42'4 4.1
2014-Dec-19 05:32N 51°28' E 002°42'0 0.2
2014-Dec-19 04:32N 51°28' E 002°42'1 1.2
2014-Dec-19 03:32N 51°29' E 002°41'3 2.9
2014-Dec-19 02:33N 51°27' E 002°38'9 8.8
2014-Dec-19 01:33N 51°21' E 002°27'1211.6
2014-Dec-19 00:33N 51°19' E 002°09'5 4.7
2014-Dec-18 23:34N 51°21' E 002°03'7 7.0
2014-Dec-18 22:33N 51°28' E 002°02'10 9.3
2014-Dec-18 21:31N 51°36' E 002°12'16910.6
2014-Dec-18 05:32N 53°56' E 004°49'1111.0
2014-Dec-18 04:33N 54°06' E 004°52'1210.6
2014-Dec-18 03:23N 54°18' E 004°60'  
2014-Dec-14 02:34N 67°56' E 014°07'  
Track history (hours):
 
Tides and Currents Weather Stations Pressure Air Temp Water Temp Dewpoint Dewpoint Depression Visibility Wind Speed Wind Dir Waves Ship Positions

Stove Tradition

Last reported at 2014-Dec-21 15:32 UTC. Time now 2014-Dec-21 16:34 UTC.
Position N 51°10' E 003°48'.

Length 186 m; draft 11.5 m.

Type: Ship. MMSI: 259962000.

Date/timePositionNaut miles runAvg speedWind from/ knotsBaromVisibWave heightAir tempDewpointWater temp
2014-Dec-21 15:32N 51°10' E 003°48'0 0.0
2014-Dec-21 14:32N 51°10' E 003°48'0 0.0
2014-Dec-21 13:32N 51°10' E 003°48'0 0.0
2014-Dec-21 12:29N 51°10' E 003°48'0 0.0
2014-Dec-21 11:32N 51°10' E 003°48'0 0.0
2014-Dec-21 10:32N 51°10' E 003°48'0 0.0
2014-Dec-21 09:26N 51°10' E 003°48'0 0.0
2014-Dec-21 08:32N 51°10' E 003°48'0 0.0
2014-Dec-21 07:32N 51°10' E 003°48'0 0.0
2014-Dec-21 06:32N 51°10' E 003°48'0 0.0
2014-Dec-21 05:26N 51°10' E 003°48'0 0.0
2014-Dec-21 04:26N 51°10' E 003°48'0 0.0
2014-Dec-21 03:32N 51°10' E 003°48'0 0.0
2014-Dec-21 02:31N 51°10' E 003°48'0 0.0
2014-Dec-21 01:31N 51°10' E 003°48'0 0.0
2014-Dec-21 00:22N 51°10' E 003°48'0 0.0
2014-Dec-20 23:28N 51°10' E 003°48'0 0.0
2014-Dec-20 22:28N 51°10' E 003°48'0 0.0
2014-Dec-20 21:28N 51°10' E 003°48'0 0.0
2014-Dec-20 20:29N 51°10' E 003°48'0 0.0
2014-Dec-20 19:28N 51°10' E 003°48'0 0.0
2014-Dec-20 18:32N 51°10' E 003°48'0 0.0
2014-Dec-20 17:32N 51°10' E 003°48'0 0.0
2014-Dec-20 16:31N 51°10' E 003°48'0 0.0
2014-Dec-20 15:28N 51°10' E 003°48'0 0.0
2014-Dec-20 14:25N 51°10' E 003°48'0 0.0
2014-Dec-20 13:28N 51°10' E 003°48'0 0.0
2014-Dec-20 12:28N 51°10' E 003°48'0 0.0
2014-Dec-20 11:26N 51°10' E 003°48'0 0.0
2014-Dec-20 10:26N 51°10' E 003°48'0 0.0
2014-Dec-20 09:28N 51°10' E 003°48'0 0.0
2014-Dec-20 08:29N 51°10' E 003°48'0 0.0
2014-Dec-20 07:22N 51°10' E 003°48'0 0.0
2014-Dec-20 06:31N 51°10' E 003°48'0 0.0
2014-Dec-20 05:28N 51°10' E 003°48'0 0.0
2014-Dec-20 04:32N 51°10' E 003°48'0 0.0
2014-Dec-20 03:28N 51°10' E 003°48'0 0.0
2014-Dec-20 02:31N 51°10' E 003°48'0 0.0
2014-Dec-20 01:31N 51°10' E 003°48'0 0.0
2014-Dec-20 00:28N 51°10' E 003°48'0 0.0
2014-Dec-19 23:25N 51°10' E 003°48'0 0.0
2014-Dec-19 22:28N 51°10' E 003°48'0 0.0
2014-Dec-19 21:25N 51°10' E 003°48'0 0.0
2014-Dec-19 20:22N 51°10' E 003°48'0 0.0
2014-Dec-19 19:28N 51°10' E 003°48'0 0.0
2014-Dec-19 18:31N 51°10' E 003°48'0 0.0
2014-Dec-19 17:28N 51°10' E 003°48'0 0.0
2014-Dec-19 16:28N 51°10' E 003°48'0 0.0
2014-Dec-19 15:34N 51°10' E 003°48'2 1.9
2014-Dec-19 14:33N 51°12' E 003°48'5 4.8
2014-Dec-19 13:33N 51°17' E 003°50'3 3.1
2014-Dec-19 12:34N 51°20' E 003°49'4 4.3
2014-Dec-19 11:33N 51°23' E 003°44'8 7.5
2014-Dec-19 10:33N 51°25' E 003°32'6 6.2
2014-Dec-19 09:33N 51°24' E 003°23'8 7.5
2014-Dec-19 08:30N 51°24' E 003°10'1010.9
2014-Dec-19 07:33N 51°22' E 002°54'8 7.6
2014-Dec-19 06:33N 51°24' E 002°42'4 4.1
2014-Dec-19 05:32N 51°28' E 002°42'0 0.2
2014-Dec-19 04:32N 51°28' E 002°42'1 1.2
2014-Dec-19 03:32N 51°29' E 002°41'3 2.9
2014-Dec-19 02:33N 51°27' E 002°38'9 8.8
2014-Dec-19 01:33N 51°21' E 002°27'1211.6
2014-Dec-19 00:33N 51°19' E 002°09'5 4.7
2014-Dec-18 23:34N 51°21' E 002°03'7 7.0
2014-Dec-18 22:33N 51°28' E 002°02'10 9.3
2014-Dec-18 21:31N 51°36' E 002°12'16910.6
2014-Dec-18 05:32N 53°56' E 004°49'1111.0
2014-Dec-18 04:33N 54°06' E 004°52'1210.6
2014-Dec-18 03:23N 54°18' E 004°60'  
2014-Dec-14 02:34N 67°56' E 014°07'  

Dump ship's entire track history